createdAt,value
2017-02-17T00:00:21.364Z,0
2017-02-17T00:01:30.894Z,0
2017-02-17T00:02:40.471Z,0
2017-02-17T00:03:50.013Z,0
2017-02-17T00:05:00.690Z,0
2017-02-17T00:06:10.635Z,0
2017-02-17T00:07:20.984Z,0
2017-02-17T00:08:30.522Z,0
2017-02-17T00:09:39.681Z,0
2017-02-17T00:10:50.653Z,0
2017-02-17T00:12:00.599Z,0
2017-02-17T00:13:10.145Z,0
2017-02-17T00:14:20.081Z,0
2017-02-17T00:15:30.816Z,0
2017-02-17T00:16:41.790Z,0
2017-02-17T00:17:52.131Z,0
2017-02-17T00:19:02.114Z,0
2017-02-17T00:20:12.834Z,0
2017-02-17T00:21:22.779Z,0
2017-02-17T00:22:32.558Z,0
2017-02-17T00:23:42.502Z,0
2017-02-17T00:24:53.224Z,0
2017-02-17T00:26:03.539Z,0
2017-02-17T00:27:13.469Z,0
2017-02-17T00:28:23.259Z,0
2017-02-17T00:29:33.577Z,0
2017-02-17T00:30:43.506Z,0
2017-02-17T00:31:53.819Z,0
2017-02-17T00:33:04.134Z,0
2017-02-17T00:34:14.312Z,0
2017-02-17T00:35:25.022Z,0
2017-02-17T00:36:34.940Z,0
2017-02-17T00:37:45.269Z,0
2017-02-17T00:38:54.803Z,0
2017-02-17T00:40:04.975Z,0
2017-02-17T00:41:14.503Z,0
2017-02-17T00:42:25.213Z,0
2017-02-17T00:43:35.540Z,0
2017-02-17T00:44:45.466Z,0
2017-02-17T00:45:55.309Z,0
2017-02-17T00:47:05.244Z,0
2017-02-17T00:48:15.944Z,0
2017-02-17T00:49:25.505Z,0
2017-02-17T00:50:35.021Z,0
2017-02-17T00:51:45.252Z,0
2017-02-17T00:52:55.985Z,0
2017-02-17T00:54:06.325Z,0
2017-02-17T00:55:16.638Z,0
2017-02-17T00:56:27.363Z,0
2017-02-17T00:57:37.943Z,0
2017-02-17T00:58:47.888Z,0
2017-02-17T00:59:57.834Z,0
2017-02-17T01:01:07.370Z,0
2017-02-17T01:02:17.700Z,0
2017-02-17T01:03:28.670Z,0
2017-02-17T01:04:39.389Z,0
2017-02-17T01:05:50.128Z,0
2017-02-17T01:07:00.455Z,0
2017-02-17T01:08:10.414Z,0
2017-02-17T01:09:21.071Z,0
2017-02-17T01:10:31.423Z,0
2017-02-17T01:11:41.749Z,0
2017-02-17T01:12:50.892Z,0
2017-02-17T01:14:00.817Z,0
2017-02-17T01:15:11.378Z,0
2017-02-17T01:16:21.318Z,0
2017-02-17T01:17:32.046Z,0
2017-02-17T01:18:42.360Z,0
2017-02-17T01:19:52.695Z,0
2017-02-17T01:21:02.926Z,0
2017-02-17T01:22:13.261Z,0
2017-02-17T01:23:23.214Z,0
2017-02-17T01:24:33.542Z,0
2017-02-17T01:25:43.068Z,0
2017-02-17T01:26:53.221Z,0
2017-02-17T01:28:02.354Z,0
2017-02-17T01:29:12.542Z,0
2017-02-17T01:30:22.066Z,0
2017-02-17T01:31:31.600Z,0
2017-02-17T01:32:41.411Z,0
2017-02-17T01:33:50.944Z,0
2017-02-17T01:35:00.986Z,0
2017-02-17T01:36:10.935Z,0
2017-02-17T01:37:21.259Z,0
2017-02-17T01:38:31.099Z,0
2017-02-17T01:39:41.032Z,0
2017-02-17T01:40:51.367Z,0
2017-02-17T01:42:01.698Z,0
2017-02-17T01:43:12.428Z,0
2017-02-17T01:44:22.679Z,0
2017-02-17T01:45:33.411Z,0
2017-02-17T01:46:42.942Z,0
2017-02-17T01:47:52.467Z,0
2017-02-17T01:49:02.002Z,0
2017-02-17T01:50:12.633Z,0
2017-02-17T01:51:22.600Z,0
2017-02-17T01:52:32.120Z,0
2017-02-17T01:53:42.038Z,0
2017-02-17T01:54:52.758Z,0
2017-02-17T01:56:02.944Z,0
2017-02-17T01:57:12.849Z,0
2017-02-17T01:58:23.153Z,0
2017-02-17T01:59:33.487Z,0
2017-02-17T02:00:43.424Z,0
2017-02-17T02:01:53.270Z,0
2017-02-17T02:03:02.849Z,0
2017-02-17T02:04:12.780Z,0
2017-02-17T02:05:21.917Z,0
2017-02-17T02:06:31.058Z,0
2017-02-17T02:07:41.702Z,0
2017-02-17T02:08:52.422Z,0
2017-02-17T02:10:03.143Z,0
2017-02-17T02:11:13.075Z,0
2017-02-17T02:12:22.996Z,0
2017-02-17T02:13:33.233Z,0
2017-02-17T02:14:43.171Z,0
2017-02-17T02:15:53.904Z,0
2017-02-17T02:17:03.868Z,0
2017-02-17T02:18:14.205Z,0
2017-02-17T02:19:24.790Z,0
2017-02-17T02:20:35.108Z,0
2017-02-17T02:21:45.424Z,0
2017-02-17T02:22:55.342Z,0
2017-02-17T02:24:05.673Z,0
2017-02-17T02:25:15.515Z,0
2017-02-17T02:26:25.438Z,0
2017-02-17T02:27:35.751Z,0
2017-02-17T02:28:46.062Z,0
2017-02-17T02:29:55.994Z,0
2017-02-17T02:31:06.238Z,0
2017-02-17T02:32:15.820Z,0
2017-02-17T02:33:25.361Z,0
2017-02-17T02:34:35.287Z,0
2017-02-17T02:35:45.519Z,0
2017-02-17T02:36:56.131Z,0
2017-02-17T02:38:06.830Z,0
2017-02-17T02:39:16.345Z,0
2017-02-17T02:40:27.082Z,0
2017-02-17T02:41:37.416Z,0
2017-02-17T02:42:47.237Z,0
2017-02-17T02:43:56.778Z,0
2017-02-17T02:45:06.349Z,0
2017-02-17T02:46:16.669Z,0
2017-02-17T02:47:27.034Z,0
2017-02-17T02:48:37.659Z,0
2017-02-17T02:49:47.967Z,0
2017-02-17T02:50:58.302Z,0
2017-02-17T02:52:08.627Z,0
2017-02-17T02:53:18.569Z,0
2017-02-17T02:54:28.800Z,0
2017-02-17T02:55:38.820Z,0
2017-02-17T02:56:49.534Z,0
2017-02-17T02:57:59.445Z,0
2017-02-17T02:59:10.159Z,0
2017-02-17T03:00:20.387Z,0
2017-02-17T03:01:29.934Z,0
2017-02-17T03:02:39.873Z,0
2017-02-17T03:03:49.401Z,0
2017-02-17T03:04:59.327Z,0
2017-02-17T03:06:09.969Z,0
2017-02-17T03:07:20.682Z,0
2017-02-17T03:08:30.980Z,0
2017-02-17T03:09:40.506Z,0
2017-02-17T03:10:50.833Z,0
2017-02-17T03:12:01.863Z,0
2017-02-17T03:13:11.407Z,0
2017-02-17T03:14:21.755Z,0
2017-02-17T03:15:30.908Z,0
2017-02-17T03:16:41.621Z,0
2017-02-17T03:17:51.846Z,0
2017-02-17T03:19:02.570Z,0
2017-02-17T03:20:12.130Z,0
2017-02-17T03:21:22.042Z,0
2017-02-17T03:22:32.762Z,0
2017-02-17T03:23:43.004Z,0
2017-02-17T03:24:53.759Z,0
2017-02-17T03:26:02.892Z,0
2017-02-17T03:27:12.818Z,0
2017-02-17T03:28:22.358Z,0
2017-02-17T03:29:32.526Z,0
2017-02-17T03:30:42.870Z,0
2017-02-17T03:31:52.818Z,0
2017-02-17T03:33:01.953Z,0
2017-02-17T03:34:11.504Z,0
2017-02-17T03:35:21.847Z,0
2017-02-17T03:36:32.162Z,0
2017-02-17T03:37:42.477Z,0
2017-02-17T03:38:52.792Z,0
2017-02-17T03:40:02.746Z,0
2017-02-17T03:41:13.372Z,0
2017-02-17T03:42:23.312Z,0
2017-02-17T03:43:33.242Z,0
2017-02-17T03:44:43.178Z,0
2017-02-17T03:45:53.119Z,0
2017-02-17T03:47:03.699Z,0
2017-02-17T03:48:13.627Z,0
2017-02-17T03:49:22.792Z,0
2017-02-17T03:50:32.732Z,0
2017-02-17T03:51:42.649Z,0
2017-02-17T03:52:52.833Z,0
2017-02-17T03:54:02.000Z,0
2017-02-17T03:55:11.920Z,0
2017-02-17T03:56:21.471Z,0
2017-02-17T03:57:32.202Z,0
2017-02-17T03:58:42.410Z,0
2017-02-17T03:59:53.110Z,0
2017-02-17T04:01:02.676Z,0
2017-02-17T04:02:12.989Z,0
2017-02-17T04:03:23.715Z,0
2017-02-17T04:04:33.933Z,0
2017-02-17T04:05:44.253Z,0
2017-02-17T04:06:54.575Z,0
2017-02-17T04:08:04.528Z,0
2017-02-17T04:09:14.458Z,0
2017-02-17T04:10:24.717Z,0
2017-02-17T04:11:34.272Z,0
2017-02-17T04:12:44.271Z,0
2017-02-17T04:13:54.188Z,0
2017-02-17T04:15:04.513Z,0
2017-02-17T04:16:14.291Z,0
2017-02-17T04:17:23.440Z,0
2017-02-17T04:18:33.383Z,0
2017-02-17T04:19:43.307Z,0
2017-02-17T04:20:53.233Z,0
2017-02-17T04:22:03.840Z,0
2017-02-17T04:23:14.160Z,0
2017-02-17T04:24:23.691Z,0
2017-02-17T04:25:33.625Z,0
2017-02-17T04:26:43.562Z,0
2017-02-17T04:27:53.357Z,0
2017-02-17T04:29:04.087Z,0
2017-02-17T04:30:14.420Z,0
2017-02-17T04:31:23.971Z,0
2017-02-17T04:32:33.891Z,0
2017-02-17T04:33:44.902Z,0
2017-02-17T04:34:55.228Z,0
2017-02-17T04:36:05.531Z,0
2017-02-17T04:37:15.469Z,0
2017-02-17T04:38:25.785Z,0
2017-02-17T04:39:35.959Z,0
2017-02-17T04:40:46.671Z,0
2017-02-17T04:41:56.996Z,0
2017-02-17T04:43:07.321Z,0
2017-02-17T04:44:17.640Z,0
2017-02-17T04:45:28.598Z,0
2017-02-17T04:46:38.521Z,0
2017-02-17T04:47:49.228Z,0
2017-02-17T04:48:59.557Z,0
2017-02-17T04:50:08.727Z,0
2017-02-17T04:51:18.969Z,0
2017-02-17T04:52:29.689Z,0
2017-02-17T04:53:39.612Z,0
2017-02-17T04:54:49.552Z,0
2017-02-17T04:55:59.095Z,0
2017-02-17T04:57:09.269Z,0
2017-02-17T04:58:19.222Z,0
2017-02-17T04:59:29.942Z,0
2017-02-17T05:00:40.256Z,0
2017-02-17T05:01:50.183Z,0
2017-02-17T05:03:00.821Z,0
2017-02-17T05:04:10.740Z,0
2017-02-17T05:05:21.251Z,0
2017-02-17T05:06:30.819Z,0
2017-02-17T05:07:40.750Z,0
2017-02-17T05:08:51.369Z,0
2017-02-17T05:10:01.301Z,0
2017-02-17T05:11:10.845Z,0
2017-02-17T05:12:20.380Z,0
2017-02-17T05:13:29.920Z,0
2017-02-17T05:14:40.087Z,0
2017-02-17T05:15:50.447Z,0
2017-02-17T05:17:00.378Z,0
2017-02-17T05:18:10.734Z,0
2017-02-17T05:19:21.067Z,0
2017-02-17T05:20:31.247Z,0
2017-02-17T05:21:41.179Z,0
2017-02-17T05:22:51.507Z,0
2017-02-17T05:24:01.445Z,0
2017-02-17T05:25:11.780Z,0
2017-02-17T05:26:22.775Z,0
2017-02-17T05:27:33.093Z,0
2017-02-17T05:28:43.023Z,0
2017-02-17T05:29:52.198Z,0
2017-02-17T05:31:01.739Z,0
2017-02-17T05:32:12.326Z,0
2017-02-17T05:33:22.868Z,0
2017-02-17T05:34:32.826Z,0
2017-02-17T05:35:42.412Z,0
2017-02-17T05:36:52.359Z,0
2017-02-17T05:38:02.576Z,0
2017-02-17T05:39:12.510Z,0
2017-02-17T05:40:23.225Z,0
2017-02-17T05:41:33.141Z,0
2017-02-17T05:42:43.463Z,0
2017-02-17T05:43:53.324Z,0
2017-02-17T05:45:02.873Z,0
2017-02-17T05:46:12.821Z,0
2017-02-17T05:47:22.755Z,0
2017-02-17T05:48:33.077Z,0
2017-02-17T05:49:43.321Z,0
2017-02-17T05:50:53.261Z,0
2017-02-17T05:52:02.819Z,4
2017-02-17T05:53:13.147Z,4
2017-02-17T05:54:23.091Z,0
2017-02-17T05:55:33.715Z,4
2017-02-17T05:56:43.650Z,8
2017-02-17T05:57:53.580Z,4
2017-02-17T05:59:02.739Z,4
2017-02-17T06:00:12.655Z,8
2017-02-17T06:01:23.311Z,12
2017-02-17T06:02:33.244Z,12
2017-02-17T06:03:42.778Z,12
2017-02-17T06:04:53.085Z,16
2017-02-17T06:06:03.832Z,20
2017-02-17T06:07:14.062Z,20
2017-02-17T06:08:23.610Z,24
2017-02-17T06:09:33.531Z,28
2017-02-17T06:10:43.869Z,32
2017-02-17T06:11:53.414Z,36
2017-02-17T06:13:03.652Z,40
2017-02-17T06:14:13.237Z,44
2017-02-17T06:15:23.558Z,52
2017-02-17T06:16:33.872Z,56
2017-02-17T06:17:44.835Z,64
2017-02-17T06:18:55.060Z,72
2017-02-17T06:20:05.381Z,80
2017-02-17T06:21:15.301Z,92
2017-02-17T06:22:25.647Z,96
2017-02-17T06:23:35.178Z,104
2017-02-17T06:24:45.741Z,120
2017-02-17T06:25:55.671Z,128
2017-02-17T06:27:06.391Z,140
2017-02-17T06:28:16.722Z,156
2017-02-17T06:29:27.089Z,176
2017-02-17T06:30:37.672Z,204
2017-02-17T06:31:47.611Z,236
2017-02-17T06:32:57.949Z,264
2017-02-17T06:34:07.886Z,300
2017-02-17T06:35:18.213Z,336
2017-02-17T06:36:28.556Z,376
2017-02-17T06:37:39.300Z,396
2017-02-17T06:38:49.631Z,392
2017-02-17T06:39:59.154Z,408
2017-02-17T06:41:09.870Z,440
2017-02-17T06:42:20.453Z,472
2017-02-17T06:43:29.615Z,468
2017-02-17T06:44:39.942Z,468
2017-02-17T06:45:50.694Z,500
2017-02-17T06:47:00.233Z,516
2017-02-17T06:48:10.922Z,508
2017-02-17T06:49:21.244Z,492
2017-02-17T06:50:31.199Z,500
2017-02-17T06:51:41.909Z,524
2017-02-17T06:52:52.247Z,532
2017-02-17T06:54:03.328Z,576
2017-02-17T06:55:13.653Z,616
2017-02-17T06:56:23.206Z,652
2017-02-17T06:57:33.138Z,716
2017-02-17T06:58:43.059Z,776
2017-02-17T06:59:54.082Z,864
2017-02-17T07:01:03.660Z,856
2017-02-17T07:02:14.014Z,808
2017-02-17T07:03:23.960Z,788
2017-02-17T07:04:33.896Z,740
2017-02-17T07:05:44.505Z,680
2017-02-17T07:06:54.046Z,644
2017-02-17T07:08:04.779Z,648
2017-02-17T07:09:15.495Z,652
2017-02-17T07:10:25.439Z,632
2017-02-17T07:11:36.018Z,652
2017-02-17T07:12:45.976Z,672
2017-02-17T07:13:56.346Z,728
2017-02-17T07:15:05.905Z,840
2017-02-17T07:16:16.222Z,992
2017-02-17T07:17:27.231Z,1196
2017-02-17T07:18:36.376Z,1252
2017-02-17T07:19:46.739Z,1220
2017-02-17T07:20:56.298Z,1188
2017-02-17T07:22:06.238Z,1164
2017-02-17T07:23:17.248Z,1192
2017-02-17T07:24:27.183Z,1196
2017-02-17T07:25:37.924Z,1148
2017-02-17T07:26:47.856Z,1148
2017-02-17T07:27:57.798Z,1228
2017-02-17T07:29:08.782Z,1376
2017-02-17T07:30:18.711Z,1436
2017-02-17T07:31:28.658Z,1492
2017-02-17T07:32:39.390Z,1636
2017-02-17T07:33:49.350Z,1796
2017-02-17T07:34:59.541Z,1764
2017-02-17T07:36:09.488Z,1400
2017-02-17T07:37:20.204Z,1192
2017-02-17T07:38:29.754Z,1136
2017-02-17T07:39:40.135Z,972
2017-02-17T07:40:50.756Z,904
2017-02-17T07:42:00.310Z,1072
2017-02-17T07:43:10.303Z,964
2017-02-17T07:44:20.625Z,688
2017-02-17T07:45:30.564Z,508
2017-02-17T07:46:41.622Z,464
2017-02-17T07:47:51.182Z,536
2017-02-17T07:49:01.500Z,568
2017-02-17T07:50:11.077Z,656
2017-02-17T07:51:21.411Z,792
2017-02-17T07:52:32.073Z,920
2017-02-17T07:53:42.395Z,968
2017-02-17T07:54:52.727Z,1000
2017-02-17T07:56:03.041Z,1016
2017-02-17T07:57:13.783Z,1084
2017-02-17T07:58:24.363Z,1112
2017-02-17T07:59:35.092Z,1144
2017-02-17T08:00:45.813Z,1120
2017-02-17T08:01:55.774Z,1080
2017-02-17T08:03:06.505Z,1060
2017-02-17T08:04:17.106Z,1088
2017-02-17T08:05:27.043Z,1132
2017-02-17T08:06:37.370Z,1204
2017-02-17T08:07:48.093Z,1192
2017-02-17T08:08:58.425Z,1132
2017-02-17T08:10:09.093Z,1132
2017-02-17T08:11:19.817Z,1012
2017-02-17T08:12:29.778Z,1016
2017-02-17T08:13:40.104Z,1072
2017-02-17T08:14:50.420Z,1296
2017-02-17T08:16:01.457Z,1536
2017-02-17T08:17:10.604Z,1520
2017-02-17T08:18:20.938Z,1188
2017-02-17T08:19:31.261Z,1120
2017-02-17T08:20:42.014Z,1176
2017-02-17T08:21:53.063Z,1392
2017-02-17T08:23:02.589Z,1620
2017-02-17T08:24:13.353Z,1824
2017-02-17T08:25:23.281Z,2044
2017-02-17T08:26:34.036Z,1972
2017-02-17T08:27:44.246Z,1880
2017-02-17T08:28:54.231Z,1768
2017-02-17T08:30:04.581Z,1376
2017-02-17T08:31:14.552Z,1284
2017-02-17T08:32:24.080Z,1348
2017-02-17T08:33:34.640Z,1212
2017-02-17T08:34:44.970Z,1184
2017-02-17T08:35:54.527Z,1412
2017-02-17T08:37:04.854Z,1692
2017-02-17T08:38:13.675Z,1644
2017-02-17T08:39:23.527Z,1732
2017-02-17T08:40:33.463Z,1740
2017-02-17T08:41:43.387Z,1688
2017-02-17T08:42:53.734Z,1580
2017-02-17T08:44:04.090Z,1624
2017-02-17T08:45:14.920Z,1652
2017-02-17T08:46:25.243Z,1604
2017-02-17T08:47:35.204Z,1336
2017-02-17T08:48:45.719Z,1512
2017-02-17T08:49:55.675Z,1628
2017-02-17T08:51:05.921Z,1748
2017-02-17T08:52:16.244Z,1768
2017-02-17T08:53:26.566Z,1716
2017-02-17T08:54:36.506Z,1712
2017-02-17T08:55:47.239Z,1624
2017-02-17T08:56:57.457Z,1704
2017-02-17T08:58:07.007Z,1776
2017-02-17T08:59:16.962Z,1432
2017-02-17T09:00:27.724Z,1540
2017-02-17T09:01:38.519Z,1824
2017-02-17T09:02:48.859Z,1676
2017-02-17T09:03:59.203Z,1704
2017-02-17T09:05:09.967Z,1988
2017-02-17T09:06:20.331Z,2168
2017-02-17T09:07:30.544Z,2224
2017-02-17T09:08:40.914Z,2008
2017-02-17T09:09:51.638Z,1832
2017-02-17T09:11:02.008Z,1980
2017-02-17T09:12:12.749Z,1808
2017-02-17T09:13:23.383Z,1752
2017-02-17T09:14:33.729Z,1644
2017-02-17T09:15:44.490Z,1464
2017-02-17T09:16:54.823Z,1436
2017-02-17T09:18:04.784Z,1412
2017-02-17T09:19:15.836Z,1340
2017-02-17T09:20:26.566Z,1176
2017-02-17T09:21:37.153Z,1060
2017-02-17T09:22:47.464Z,1276
2017-02-17T09:23:58.179Z,1520
2017-02-17T09:25:08.435Z,1756
2017-02-17T09:26:18.766Z,1900
2017-02-17T09:27:28.722Z,2024
2017-02-17T09:28:39.441Z,2212
2017-02-17T09:29:49.003Z,2400
2017-02-17T09:30:59.583Z,2556
2017-02-17T09:32:09.144Z,2540
2017-02-17T09:33:19.078Z,2532
2017-02-17T09:34:29.423Z,2516
2017-02-17T09:35:39.771Z,2112
2017-02-17T09:36:50.743Z,1864
2017-02-17T09:38:01.112Z,1612
2017-02-17T09:39:11.461Z,1592
2017-02-17T09:40:21.817Z,1440
2017-02-17T09:41:31.780Z,1340
2017-02-17T09:42:41.570Z,1180
2017-02-17T09:43:52.314Z,1308
2017-02-17T09:45:02.646Z,1564
2017-02-17T09:46:12.975Z,1896
2017-02-17T09:47:23.725Z,2116
2017-02-17T09:48:34.386Z,2376
2017-02-17T09:49:44.324Z,2664
2017-02-17T09:50:54.253Z,3272
2017-02-17T09:52:05.005Z,3124
2017-02-17T09:53:15.371Z,3140
2017-02-17T09:54:25.956Z,2976
2017-02-17T09:55:36.694Z,2592
2017-02-17T09:56:47.441Z,2468
2017-02-17T09:57:57.767Z,2328
2017-02-17T09:59:07.702Z,2276
2017-02-17T10:00:17.969Z,2228
2017-02-17T10:01:27.737Z,2484
2017-02-17T10:02:38.477Z,2548
2017-02-17T10:03:48.808Z,2632
2017-02-17T10:04:59.535Z,2408
2017-02-17T10:06:10.506Z,2540
2017-02-17T10:07:20.874Z,2716
2017-02-17T10:08:30.809Z,2408
2017-02-17T10:09:41.572Z,2448
2017-02-17T10:10:51.112Z,2732
2017-02-17T10:12:02.107Z,2928
2017-02-17T10:13:12.851Z,2320
2017-02-17T10:14:23.200Z,2116
2017-02-17T10:15:33.555Z,2444
2017-02-17T10:16:44.533Z,2520
2017-02-17T10:17:54.899Z,2596
2017-02-17T10:19:05.260Z,2572
2017-02-17T10:20:14.425Z,2320
2017-02-17T10:21:24.346Z,2460
2017-02-17T10:22:34.939Z,2008
2017-02-17T10:23:45.691Z,2132
2017-02-17T10:24:56.029Z,2500
2017-02-17T10:26:06.377Z,2292
2017-02-17T10:27:17.117Z,2324
2017-02-17T10:28:27.685Z,2312
2017-02-17T10:29:37.259Z,2312
2017-02-17T10:30:47.605Z,1912
2017-02-17T10:31:57.960Z,1796
2017-02-17T10:33:08.688Z,1792
2017-02-17T10:34:19.700Z,1680
2017-02-17T10:35:30.444Z,1652
2017-02-17T10:36:40.784Z,1536
2017-02-17T10:37:51.364Z,1296
2017-02-17T10:39:02.128Z,1432
2017-02-17T10:40:12.747Z,1484
2017-02-17T10:41:22.684Z,1548
2017-02-17T10:42:32.225Z,1804
2017-02-17T10:43:42.572Z,1772
2017-02-17T10:44:53.327Z,1864
2017-02-17T10:46:03.557Z,2032
2017-02-17T10:47:13.883Z,2188
2017-02-17T10:48:24.233Z,2356
2017-02-17T10:49:34.597Z,2452
2017-02-17T10:50:44.933Z,2288
2017-02-17T10:51:56.000Z,2172
2017-02-17T10:53:06.763Z,2172
2017-02-17T10:54:16.749Z,1944
2017-02-17T10:55:27.784Z,1796
2017-02-17T10:56:37.748Z,1500
2017-02-17T10:57:48.341Z,1668
2017-02-17T10:58:58.720Z,1584
2017-02-17T11:00:09.080Z,1772
2017-02-17T11:01:19.038Z,1716
2017-02-17T11:02:29.828Z,1420
2017-02-17T11:03:40.479Z,1536
2017-02-17T11:04:51.219Z,1556
2017-02-17T11:06:01.157Z,1520
2017-02-17T11:07:11.121Z,1528
2017-02-17T11:08:21.892Z,1744
2017-02-17T11:09:32.527Z,2080
2017-02-17T11:10:42.876Z,2192
2017-02-17T11:11:53.231Z,2060
2017-02-17T11:13:02.808Z,2116
2017-02-17T11:14:13.550Z,2220
2017-02-17T11:15:23.024Z,1884
2017-02-17T11:16:32.983Z,1600
2017-02-17T11:17:43.362Z,1448
2017-02-17T11:18:53.707Z,1604
2017-02-17T11:20:04.473Z,1488
2017-02-17T11:21:14.469Z,1416
2017-02-17T11:22:24.012Z,1284
2017-02-17T11:23:34.363Z,1152
2017-02-17T11:24:44.717Z,1132
2017-02-17T11:25:55.369Z,1148
2017-02-17T11:27:06.027Z,1200
2017-02-17T11:28:16.365Z,1344
2017-02-17T11:29:27.150Z,1540
2017-02-17T11:30:37.503Z,1460
2017-02-17T11:31:47.766Z,1328
2017-02-17T11:32:58.524Z,1424
2017-02-17T11:34:08.924Z,1640
2017-02-17T11:35:18.910Z,1604
2017-02-17T11:36:28.489Z,1424
2017-02-17T11:37:39.593Z,1396
2017-02-17T11:38:50.348Z,1488
2017-02-17T11:40:01.113Z,1660
2017-02-17T11:41:11.504Z,1636
2017-02-17T11:42:22.272Z,1600
2017-02-17T11:43:32.952Z,1156
2017-02-17T11:44:43.727Z,968
2017-02-17T11:45:54.131Z,1044
2017-02-17T11:47:04.904Z,1048
2017-02-17T11:48:14.894Z,1108
2017-02-17T11:49:25.187Z,1288
2017-02-17T11:50:35.162Z,1496
2017-02-17T11:51:45.165Z,1572
2017-02-17T11:52:55.529Z,1352
2017-02-17T11:54:06.296Z,1136
2017-02-17T11:55:16.975Z,1004
2017-02-17T11:56:27.363Z,1296
2017-02-17T11:57:36.940Z,1240
2017-02-17T11:58:47.366Z,1100
2017-02-17T11:59:58.160Z,1072
2017-02-17T12:01:08.152Z,1020
2017-02-17T12:02:18.534Z,1032
2017-02-17T12:03:29.276Z,948
2017-02-17T12:04:39.233Z,948
2017-02-17T12:05:49.613Z,876
2017-02-17T12:07:00.651Z,764
2017-02-17T12:08:11.037Z,848
2017-02-17T12:09:21.805Z,1120
2017-02-17T12:10:31.398Z,956
2017-02-17T12:11:42.181Z,1296
2017-02-17T12:12:52.940Z,936
2017-02-17T12:14:03.309Z,976
2017-02-17T12:15:14.087Z,1340
2017-02-17T12:16:24.499Z,1532
2017-02-17T12:17:35.267Z,1476
2017-02-17T12:18:46.022Z,1348
2017-02-17T12:19:56.796Z,1384
2017-02-17T12:21:07.564Z,1412
2017-02-17T12:22:17.526Z,1264
2017-02-17T12:23:27.887Z,1420
2017-02-17T12:24:38.586Z,1240
2017-02-17T12:25:48.999Z,1280
2017-02-17T12:26:59.789Z,1024
2017-02-17T12:28:09.798Z,840
2017-02-17T12:29:20.628Z,836
2017-02-17T12:30:31.758Z,856
2017-02-17T12:31:42.573Z,716
2017-02-17T12:32:53.336Z,896
2017-02-17T12:34:03.715Z,1160
2017-02-17T12:35:14.117Z,1732
2017-02-17T12:36:25.184Z,1812
2017-02-17T12:37:35.958Z,1032
2017-02-17T12:38:46.749Z,1568
2017-02-17T12:39:57.095Z,1412
2017-02-17T12:41:07.875Z,1308
2017-02-17T12:42:18.932Z,1440
2017-02-17T12:43:29.706Z,1400
2017-02-17T12:44:40.314Z,1244
2017-02-17T12:45:50.288Z,1116
2017-02-17T12:47:00.292Z,1184
2017-02-17T12:48:10.275Z,1148
2017-02-17T12:49:21.034Z,1176
2017-02-17T12:50:31.831Z,1196
2017-02-17T12:51:42.630Z,1136
2017-02-17T12:52:53.386Z,1136
2017-02-17T12:54:03.616Z,1008
2017-02-17T12:55:14.422Z,908
2017-02-17T12:56:24.434Z,812
2017-02-17T12:57:34.834Z,864
2017-02-17T12:58:45.635Z,976
2017-02-17T12:59:56.317Z,1036
2017-02-17T13:01:07.060Z,1124
2017-02-17T13:02:17.034Z,1168
2017-02-17T13:03:27.390Z,1252
2017-02-17T13:04:37.783Z,1384
2017-02-17T13:05:48.812Z,1500
2017-02-17T13:06:58.804Z,1660
2017-02-17T13:08:09.194Z,1732
2017-02-17T13:09:19.953Z,1692
2017-02-17T13:10:30.323Z,1808
2017-02-17T13:11:41.331Z,1848
2017-02-17T13:12:52.098Z,1812
2017-02-17T13:14:02.868Z,1796
2017-02-17T13:15:12.850Z,1700
2017-02-17T13:16:23.228Z,1716
2017-02-17T13:17:33.534Z,1484
2017-02-17T13:18:43.943Z,1380
2017-02-17T13:19:54.339Z,1252
2017-02-17T13:21:04.307Z,1200
2017-02-17T13:22:15.107Z,1064
2017-02-17T13:23:26.197Z,804
2017-02-17T13:24:36.577Z,640
2017-02-17T13:25:46.938Z,640
2017-02-17T13:26:57.329Z,696
2017-02-17T13:28:07.328Z,812
2017-02-17T13:29:17.367Z,896
2017-02-17T13:30:27.727Z,788
2017-02-17T13:31:37.705Z,660
2017-02-17T13:32:48.494Z,516
2017-02-17T13:33:59.190Z,448
2017-02-17T13:35:09.711Z,492
2017-02-17T13:36:20.474Z,476
2017-02-17T13:37:30.440Z,576
2017-02-17T13:38:41.194Z,524
2017-02-17T13:39:52.445Z,564
2017-02-17T13:41:02.834Z,604
2017-02-17T13:42:13.610Z,576
2017-02-17T13:43:24.381Z,512
2017-02-17T13:44:35.149Z,576
2017-02-17T13:45:46.179Z,648
2017-02-17T13:46:56.996Z,820
2017-02-17T13:48:06.576Z,1024
2017-02-17T13:49:16.980Z,1112
2017-02-17T13:50:27.773Z,1128
2017-02-17T13:51:38.051Z,1016
2017-02-17T13:52:48.457Z,1064
2017-02-17T13:53:59.242Z,1264
2017-02-17T13:55:10.069Z,1640
2017-02-17T13:56:20.455Z,1940
2017-02-17T13:57:31.553Z,2136
2017-02-17T13:58:41.916Z,1924
2017-02-17T13:59:51.461Z,1516
2017-02-17T14:01:01.413Z,1468
2017-02-17T14:02:10.979Z,1532
2017-02-17T14:03:21.656Z,1676
2017-02-17T14:04:31.994Z,1444
2017-02-17T14:05:42.357Z,1292
2017-02-17T14:06:52.298Z,1496
2017-02-17T14:08:03.028Z,1596
2017-02-17T14:09:13.693Z,1580
2017-02-17T14:10:23.623Z,1468
2017-02-17T14:11:34.005Z,1332
2017-02-17T14:12:44.349Z,996
2017-02-17T14:13:54.295Z,1060
2017-02-17T14:15:04.493Z,1080
2017-02-17T14:16:14.446Z,1080
2017-02-17T14:17:25.216Z,1172
2017-02-17T14:18:35.580Z,1176
2017-02-17T14:19:46.346Z,1208
2017-02-17T14:20:57.372Z,1360
2017-02-17T14:22:07.723Z,868
2017-02-17T14:23:18.458Z,808
2017-02-17T14:24:29.213Z,860
2017-02-17T14:25:39.560Z,504
2017-02-17T14:26:54.727Z,704
2017-02-17T14:28:04.666Z,828
2017-02-17T14:29:15.421Z,744
2017-02-17T14:30:25.798Z,932
2017-02-17T14:31:36.193Z,608
2017-02-17T14:32:46.447Z,516
2017-02-17T14:33:57.204Z,576
2017-02-17T14:35:07.167Z,656
2017-02-17T14:36:17.530Z,652
2017-02-17T14:37:28.320Z,652
2017-02-17T14:38:38.994Z,724
2017-02-17T14:39:49.357Z,580
2017-02-17T14:40:59.703Z,556
2017-02-17T14:42:09.261Z,560
2017-02-17T14:43:19.601Z,608
2017-02-17T14:44:30.247Z,672
2017-02-17T14:45:40.614Z,576
2017-02-17T14:46:50.153Z,616
2017-02-17T14:48:00.921Z,676
2017-02-17T14:49:11.624Z,700
2017-02-17T14:50:22.702Z,880
2017-02-17T14:51:33.463Z,1352
2017-02-17T14:52:44.215Z,1240
2017-02-17T14:53:54.961Z,1020
2017-02-17T14:55:05.726Z,928
2017-02-17T14:56:16.750Z,716
2017-02-17T14:57:27.209Z,708
2017-02-17T14:58:37.586Z,564
2017-02-17T14:59:47.955Z,484
2017-02-17T15:00:58.288Z,728
2017-02-17T15:02:09.347Z,532
2017-02-17T15:03:20.121Z,496
2017-02-17T15:04:30.474Z,556
2017-02-17T15:05:40.419Z,588
2017-02-17T15:06:50.782Z,452
2017-02-17T15:08:01.393Z,440
2017-02-17T15:09:11.758Z,416
2017-02-17T15:10:22.209Z,368
2017-02-17T15:11:32.648Z,276
2017-02-17T15:12:42.627Z,268
2017-02-17T15:13:53.336Z,296
2017-02-17T15:15:03.708Z,340
2017-02-17T15:16:14.081Z,308
2017-02-17T15:17:24.443Z,324
2017-02-17T15:18:34.392Z,232
2017-02-17T15:19:44.634Z,204
2017-02-17T15:20:55.373Z,192
2017-02-17T15:22:06.134Z,184
2017-02-17T15:23:16.080Z,212
2017-02-17T15:24:26.042Z,172
2017-02-17T15:25:37.080Z,212
2017-02-17T15:26:47.466Z,196
2017-02-17T15:27:57.425Z,164
2017-02-17T15:29:07.780Z,168
2017-02-17T15:30:17.335Z,180
2017-02-17T15:31:27.140Z,168
2017-02-17T15:32:37.495Z,160
2017-02-17T15:33:47.895Z,140
2017-02-17T15:34:58.682Z,140
2017-02-17T15:36:09.450Z,116
2017-02-17T15:37:20.583Z,96
2017-02-17T15:38:30.931Z,112
2017-02-17T15:39:41.705Z,112
2017-02-17T15:40:52.062Z,108
2017-02-17T15:42:02.833Z,92
2017-02-17T15:43:13.545Z,88
2017-02-17T15:44:24.296Z,88
2017-02-17T15:45:34.679Z,100
2017-02-17T15:46:45.475Z,116
2017-02-17T15:47:55.419Z,96
2017-02-17T15:49:06.036Z,96
2017-02-17T15:50:16.423Z,84
2017-02-17T15:51:27.218Z,88
2017-02-17T15:52:37.210Z,96
2017-02-17T15:53:47.169Z,116
2017-02-17T15:54:57.815Z,128
2017-02-17T15:56:08.586Z,108
2017-02-17T15:57:18.936Z,120
2017-02-17T15:58:29.686Z,108
2017-02-17T15:59:39.255Z,84
2017-02-17T16:00:50.311Z,84
2017-02-17T16:02:00.260Z,76
2017-02-17T16:03:10.625Z,68
2017-02-17T16:04:21.397Z,68
2017-02-17T16:05:31.797Z,60
2017-02-17T16:06:42.062Z,60
2017-02-17T16:07:52.821Z,56
2017-02-17T16:09:03.188Z,68
2017-02-17T16:10:13.546Z,60
2017-02-17T16:11:24.220Z,44
2017-02-17T16:12:35.219Z,52
2017-02-17T16:13:45.988Z,44
2017-02-17T16:14:56.359Z,48
2017-02-17T16:16:06.311Z,52
2017-02-17T16:17:16.274Z,48
2017-02-17T16:18:27.378Z,52
2017-02-17T16:19:38.232Z,40
2017-02-17T16:20:48.994Z,28
2017-02-17T16:21:59.768Z,28